Aquilla, Alabama
Current Conditions -  °F | °C
As of 10:10 PM on Friday 19 Dec 2014 (Local Time) from KMEI Reporting Station
Light Rain Light Rain  
Wind Chill: 42°   Ceiling: 900
Heat Index: 44°   Visibility: 10mi
Dew Point: 42°   Wind: 5mph
Humidity: 93%   Direction: 30°NNE
Pressure: 30.16"   Gusts: NA
Location:  31.6272°N, 88.354°W
Report Text: KMEI 200410Z AUTO 03004KT 10SM -RA BKN009 BKN060 OVC090 07/06 A3016 RMK AO2 P0000 T00670056
Loading
Personal Weather Stations






























Interactive Weather Map New forecast layout! Learn more

10-Day Weather Forecast

Advertisements
Track Severe Weather on mobile